createdAt,value
2018-04-09T00:02:02.886Z,17.58
2018-04-09T00:04:37.457Z,17.49
2018-04-09T00:07:12.751Z,17.41
2018-04-09T00:09:47.760Z,17.36
2018-04-09T00:12:23.021Z,17.26
2018-04-09T00:14:58.021Z,17.11
2018-04-09T00:17:32.498Z,17.02
2018-04-09T00:20:07.406Z,16.96
2018-04-09T00:22:42.482Z,16.87
2018-04-09T00:25:18.492Z,16.80
2018-04-09T00:27:53.287Z,16.78
2018-04-09T00:30:28.538Z,16.75
2018-04-09T00:33:03.112Z,16.71
2018-04-09T00:35:38.255Z,16.71
2018-04-09T00:38:13.013Z,16.68
2018-04-09T00:40:48.010Z,16.62
2018-04-09T00:43:22.586Z,16.58
2018-04-09T00:45:57.830Z,16.54
2018-04-09T00:48:32.583Z,16.50
2018-04-09T00:51:07.059Z,16.49
2018-04-09T00:56:38.209Z,16.45
2018-04-09T00:59:13.426Z,16.42
2018-04-09T01:01:48.313Z,16.39
2018-04-09T01:04:23.089Z,16.35
2018-04-09T01:06:57.675Z,16.28
2018-04-09T01:09:32.772Z,16.20
2018-04-09T01:12:07.450Z,16.09
2018-04-09T01:14:42.378Z,16.00
2018-04-09T01:17:18.674Z,15.95
2018-04-09T01:19:53.091Z,15.89
2018-04-09T01:22:28.585Z,15.79
2018-04-09T01:25:03.431Z,15.75
2018-04-09T01:27:38.002Z,15.76
2018-04-09T01:30:13.238Z,15.72
2018-04-09T01:32:47.844Z,15.66
2018-04-09T01:35:22.538Z,15.62
2018-04-09T01:37:57.719Z,15.57
2018-04-09T01:40:32.667Z,15.52
2018-04-09T01:43:07.249Z,15.49
2018-04-09T01:45:42.114Z,15.47
2018-04-09T01:48:16.808Z,15.44
2018-04-09T01:50:51.627Z,15.36
2018-04-09T01:53:26.653Z,15.32
2018-04-09T01:56:01.416Z,15.26
2018-04-09T01:58:36.396Z,15.22
2018-04-09T02:01:11.050Z,15.15
2018-04-09T02:03:45.627Z,15.09
2018-04-09T02:06:20.554Z,15.01
2018-04-09T02:08:55.482Z,14.93
2018-04-09T02:11:30.526Z,14.87
2018-04-09T02:14:05.450Z,14.79
2018-04-09T02:16:39.934Z,14.74
2018-04-09T02:19:14.819Z,14.69
2018-04-09T02:21:49.799Z,14.60
2018-04-09T02:24:24.799Z,14.57
2018-04-09T02:27:00.545Z,14.56
2018-04-09T02:29:35.026Z,14.54
2018-04-09T02:32:09.811Z,14.50
2018-04-09T02:34:44.484Z,14.48
2018-04-09T02:37:20.546Z,14.43
2018-04-09T02:39:54.702Z,14.39
2018-04-09T02:42:30.012Z,14.35
2018-04-09T02:45:04.034Z,14.33
2018-04-09T02:47:39.130Z,14.29
2018-04-09T02:50:14.057Z,14.26
2018-04-09T02:52:48.764Z,14.19
2018-04-09T02:55:23.842Z,14.16
2018-04-09T02:57:58.550Z,14.16
2018-04-09T03:00:32.810Z,14.12
2018-04-09T03:03:07.468Z,14.04
2018-04-09T03:05:42.360Z,13.96
2018-04-09T03:08:17.130Z,13.92
2018-04-09T03:10:51.734Z,13.87
2018-04-09T03:13:26.870Z,13.86
2018-04-09T03:16:02.149Z,13.83
2018-04-09T03:18:37.150Z,13.78
2018-04-09T03:21:11.850Z,13.68
2018-04-09T03:23:46.695Z,13.60
2018-04-09T03:26:21.878Z,13.55
2018-04-09T03:28:56.548Z,13.51
2018-04-09T03:31:31.855Z,13.45
2018-04-09T03:34:07.119Z,13.45
2018-04-09T03:36:42.008Z,13.42
2018-04-09T03:39:16.902Z,13.38
2018-04-09T03:41:51.847Z,13.35
2018-04-09T03:44:26.972Z,13.31
2018-04-09T03:47:01.819Z,13.27
2018-04-09T03:49:36.690Z,13.25
2018-04-09T03:52:11.870Z,13.20
2018-04-09T03:54:46.512Z,13.14
2018-04-09T03:57:21.684Z,13.11
2018-04-09T03:59:56.814Z,13.05
2018-04-09T04:02:31.819Z,13.02
2018-04-09T04:05:06.775Z,13.03
2018-04-09T04:07:41.629Z,13.05
2018-04-09T04:10:16.130Z,12.99
2018-04-09T04:12:50.910Z,12.89
2018-04-09T04:15:37.169Z,12.84
2018-04-09T04:18:35.651Z,12.96
2018-04-09T04:21:21.214Z,13.61
2018-04-09T04:23:55.887Z,14.36
2018-04-09T04:26:31.104Z,15.00
2018-04-09T04:29:05.900Z,15.52
2018-04-09T04:31:40.843Z,15.93
2018-04-09T04:34:15.433Z,16.22
2018-04-09T04:36:50.279Z,16.40
2018-04-09T04:39:25.171Z,16.48
2018-04-09T04:42:00.112Z,16.57
2018-04-09T04:44:35.140Z,16.69
2018-04-09T04:47:09.887Z,16.65
2018-04-09T04:49:44.854Z,16.22
2018-04-09T04:52:19.274Z,15.64
2018-04-09T04:54:54.162Z,15.00
2018-04-09T04:57:29.062Z,14.52
2018-04-09T05:00:03.711Z,14.12
2018-04-09T05:02:38.947Z,13.84
2018-04-09T05:05:13.953Z,13.70
2018-04-09T05:07:48.675Z,13.54
2018-04-09T05:10:24.057Z,13.41
2018-04-09T05:12:58.938Z,13.29
2018-04-09T05:15:33.819Z,13.21
2018-04-09T05:18:08.446Z,13.13
2018-04-09T05:20:43.871Z,13.04
2018-04-09T05:23:19.329Z,12.92
2018-04-09T05:25:54.963Z,12.89
2018-04-09T05:28:30.664Z,12.84
2018-04-09T05:31:05.368Z,12.81
2018-04-09T05:33:40.362Z,12.80
2018-04-09T05:36:15.521Z,12.80
2018-04-09T05:38:50.128Z,12.87
2018-04-09T05:41:25.297Z,12.95
2018-04-09T05:44:00.511Z,13.03
2018-04-09T05:46:35.483Z,13.13
2018-04-09T05:49:10.173Z,13.21
2018-04-09T05:51:45.163Z,13.28
2018-04-09T05:54:19.979Z,13.34
2018-04-09T05:56:54.299Z,13.41
2018-04-09T05:59:29.205Z,13.55
2018-04-09T06:02:03.886Z,13.62
2018-04-09T06:04:39.073Z,13.72
2018-04-09T06:07:13.679Z,13.79
2018-04-09T06:09:48.580Z,13.85
2018-04-09T06:12:23.576Z,14.02
2018-04-09T06:14:58.232Z,14.17
2018-04-09T06:17:33.366Z,14.31
2018-04-09T06:20:08.358Z,14.45
2018-04-09T06:22:43.160Z,14.59
2018-04-09T06:25:19.473Z,14.72
2018-04-09T06:27:54.936Z,14.83
2018-04-09T06:30:30.691Z,14.94
2018-04-09T06:33:05.304Z,15.08
2018-04-09T06:35:40.186Z,15.21
2018-04-09T06:38:14.852Z,15.33
2018-04-09T06:40:49.802Z,15.47
2018-04-09T06:43:25.058Z,15.57
2018-04-09T06:45:59.437Z,15.71
2018-04-09T06:48:34.398Z,15.85
2018-04-09T06:51:09.063Z,16.02
2018-04-09T06:53:44.011Z,16.17
2018-04-09T06:56:19.586Z,16.28
2018-04-09T06:58:55.062Z,16.33
2018-04-09T07:01:29.268Z,16.39
2018-04-09T07:04:04.340Z,16.53
2018-04-09T07:06:39.035Z,16.75
2018-04-09T07:09:13.734Z,16.88
2018-04-09T07:11:48.526Z,16.89
2018-04-09T07:14:23.502Z,16.72
2018-04-09T07:16:58.120Z,16.64
2018-04-09T07:19:33.403Z,16.76
2018-04-09T07:22:07.885Z,16.97
2018-04-09T07:24:42.573Z,17.14
2018-04-09T07:27:17.584Z,17.33
2018-04-09T07:29:52.448Z,17.42
2018-04-09T07:32:27.336Z,17.41
2018-04-09T07:35:02.306Z,17.43
2018-04-09T07:37:37.587Z,17.57
2018-04-09T07:40:12.078Z,17.71
2018-04-09T07:42:46.869Z,17.74
2018-04-09T07:45:21.751Z,17.80
2018-04-09T07:47:56.858Z,17.84
2018-04-09T07:50:31.830Z,17.93
2018-04-09T07:53:06.850Z,18.09
2018-04-09T07:55:41.738Z,18.36
2018-04-09T07:58:16.480Z,18.68
2018-04-09T08:00:50.867Z,18.95
2018-04-09T08:05:59.098Z,19.27
2018-04-09T08:08:34.283Z,19.29
2018-04-09T08:11:08.964Z,19.35
2018-04-09T08:13:44.246Z,19.48
2018-04-09T08:16:19.698Z,19.65
2018-04-09T08:18:54.458Z,19.79
2018-04-09T08:21:29.563Z,19.96
2018-04-09T08:24:04.485Z,20.04
2018-04-09T08:26:39.446Z,20.21
2018-04-09T08:29:14.223Z,20.43
2018-04-09T08:31:49.467Z,20.69
2018-04-09T08:34:24.442Z,20.87
2018-04-09T08:36:59.028Z,21.03
2018-04-09T08:39:33.614Z,21.21
2018-04-09T08:42:08.370Z,21.30
2018-04-09T08:44:43.248Z,21.42
2018-04-09T08:47:19.882Z,21.51
2018-04-09T08:49:54.566Z,21.69
2018-04-09T08:52:29.779Z,21.87
2018-04-09T08:55:04.777Z,21.99
2018-04-09T08:57:39.547Z,22.03
2018-04-09T09:00:14.360Z,22.15
2018-04-09T09:02:49.410Z,22.26
2018-04-09T09:05:24.799Z,22.27
2018-04-09T09:07:59.659Z,22.32
2018-04-09T09:10:35.053Z,22.38
2018-04-09T09:13:09.853Z,22.49
2018-04-09T09:15:44.969Z,22.64
2018-04-09T09:18:20.058Z,22.73
2018-04-09T09:20:54.646Z,22.76
2018-04-09T09:23:29.603Z,22.85
2018-04-09T09:26:04.589Z,22.98
2018-04-09T09:28:39.562Z,23.00
2018-04-09T09:31:14.238Z,22.90
2018-04-09T09:33:48.922Z,22.74
2018-04-09T09:36:23.950Z,22.64
2018-04-09T09:38:58.733Z,22.62
2018-04-09T09:41:33.874Z,22.54
2018-04-09T09:44:08.290Z,22.48
2018-04-09T09:46:43.598Z,22.44
2018-04-09T09:49:19.978Z,22.53
2018-04-09T09:51:55.175Z,22.68
2018-04-09T09:54:29.839Z,22.84
2018-04-09T09:57:05.034Z,23.09
2018-04-09T09:59:39.919Z,23.19
2018-04-09T10:02:14.529Z,23.28
2018-04-09T10:04:49.671Z,23.48
2018-04-09T10:07:24.451Z,23.70
2018-04-09T10:09:59.718Z,23.93
2018-04-09T10:12:34.303Z,24.10
2018-04-09T10:15:09.295Z,24.39
2018-04-09T10:17:44.630Z,24.57
2018-04-09T10:20:20.095Z,24.54
2018-04-09T10:22:55.713Z,24.45
2018-04-09T10:25:31.519Z,24.37
2018-04-09T10:28:06.003Z,24.21
2018-04-09T10:30:40.883Z,24.19
2018-04-09T10:33:15.565Z,24.22
2018-04-09T10:35:50.788Z,24.17
2018-04-09T10:38:26.285Z,24.14
2018-04-09T10:41:01.272Z,24.11
2018-04-09T10:43:36.300Z,23.94
2018-04-09T10:46:11.204Z,23.83
2018-04-09T10:48:46.231Z,23.84
2018-04-09T10:51:21.138Z,23.88
2018-04-09T10:53:55.986Z,23.82
2018-04-09T10:56:31.066Z,23.74
2018-04-09T10:59:05.889Z,23.69
2018-04-09T11:01:40.486Z,23.63
2018-04-09T11:04:15.470Z,23.65
2018-04-09T11:06:50.465Z,23.68
2018-04-09T11:09:25.467Z,23.81
2018-04-09T11:12:00.076Z,23.88
2018-04-09T11:14:35.146Z,23.80
2018-04-09T11:17:09.713Z,24.01
2018-04-09T11:19:44.867Z,24.20
2018-04-09T11:22:20.274Z,24.34
2018-04-09T11:24:55.012Z,24.35
2018-04-09T11:27:29.458Z,24.34
2018-04-09T11:30:03.675Z,24.32
2018-04-09T11:32:38.958Z,24.31
2018-04-09T11:35:13.975Z,24.31
2018-04-09T11:37:48.929Z,24.27
2018-04-09T11:40:23.463Z,24.18
2018-04-09T11:42:58.018Z,24.09
2018-04-09T11:45:33.307Z,24.02
2018-04-09T11:48:08.257Z,23.95
2018-04-09T11:50:43.048Z,23.95
2018-04-09T11:53:18.149Z,24.02
2018-04-09T11:55:53.222Z,24.11
2018-04-09T11:58:28.357Z,24.09
2018-04-09T12:01:03.339Z,24.02
2018-04-09T12:03:38.360Z,24.01
2018-04-09T12:06:13.065Z,23.95
2018-04-09T12:08:48.104Z,23.92
2018-04-09T12:11:22.577Z,23.79
2018-04-09T12:13:58.016Z,23.79
2018-04-09T12:16:32.508Z,23.80
2018-04-09T12:19:07.410Z,23.74
2018-04-09T12:21:42.608Z,23.67
2018-04-09T12:24:17.535Z,23.67
2018-04-09T12:26:52.420Z,23.66
2018-04-09T12:29:27.366Z,23.74
2018-04-09T12:32:02.088Z,23.77
2018-04-09T12:34:37.376Z,23.80
2018-04-09T12:37:12.233Z,23.87
2018-04-09T12:39:46.737Z,23.91
2018-04-09T12:42:21.544Z,23.94
2018-04-09T12:44:56.465Z,23.93
2018-04-09T12:47:32.038Z,23.92
2018-04-09T12:50:06.906Z,23.82
2018-04-09T12:52:42.095Z,23.71
2018-04-09T12:55:16.696Z,23.74
2018-04-09T12:57:51.580Z,23.81
2018-04-09T13:00:26.560Z,23.89
2018-04-09T13:03:01.451Z,23.98
2018-04-09T13:05:36.427Z,24.08
2018-04-09T13:08:11.186Z,24.09
2018-04-09T13:10:46.276Z,24.10
2018-04-09T13:13:21.488Z,24.09
2018-04-09T13:15:56.293Z,24.13
2018-04-09T13:18:31.364Z,24.09
2018-04-09T13:21:06.270Z,24.09
2018-04-09T13:23:41.153Z,24.06
2018-04-09T13:26:15.753Z,24.07
2018-04-09T13:28:50.666Z,24.14
2018-04-09T13:31:25.763Z,24.29
2018-04-09T13:34:00.780Z,24.44
2018-04-09T13:36:35.539Z,24.57
2018-04-09T13:39:10.364Z,24.67
2018-04-09T13:41:45.548Z,24.56
2018-04-09T13:44:20.708Z,24.47
2018-04-09T13:46:55.273Z,24.45
2018-04-09T13:49:30.553Z,24.44
2018-04-09T13:52:05.084Z,24.34
2018-04-09T13:54:40.412Z,24.30
2018-04-09T13:57:15.400Z,24.22
2018-04-09T13:59:50.012Z,24.30
2018-04-09T14:02:24.829Z,24.27
2018-04-09T14:04:59.786Z,24.27
2018-04-09T14:07:34.744Z,24.24
2018-04-09T14:10:09.458Z,24.19
2018-04-09T14:12:44.486Z,24.09
2018-04-09T14:15:20.377Z,23.98
2018-04-09T14:17:54.785Z,23.86
2018-04-09T14:20:29.860Z,23.76
2018-04-09T14:23:04.455Z,23.69
2018-04-09T14:25:39.360Z,23.63
2018-04-09T14:28:14.412Z,23.59
2018-04-09T14:30:49.533Z,23.56
2018-04-09T14:33:24.517Z,23.57
2018-04-09T14:35:59.504Z,23.58
2018-04-09T14:38:33.941Z,23.55
2018-04-09T14:41:09.322Z,23.54
2018-04-09T14:43:44.441Z,23.51
2018-04-09T14:46:20.736Z,23.50
2018-04-09T14:48:55.534Z,23.50
2018-04-09T14:51:30.524Z,23.54
2018-04-09T14:54:04.678Z,23.58
2018-04-09T14:56:39.666Z,23.66
2018-04-09T14:59:14.434Z,23.64
2018-04-09T15:01:49.571Z,23.70
2018-04-09T15:04:24.533Z,23.77
2018-04-09T15:06:59.654Z,23.82
2018-04-09T15:09:34.515Z,23.78
2018-04-09T15:12:09.600Z,23.78
2018-04-09T15:14:44.583Z,23.81
2018-04-09T15:17:20.895Z,23.88
2018-04-09T15:19:55.579Z,23.93
2018-04-09T15:22:30.821Z,23.99
2018-04-09T15:25:06.124Z,24.03
2018-04-09T15:27:41.040Z,24.04
2018-04-09T15:30:15.874Z,24.06
2018-04-09T15:32:50.631Z,24.07
2018-04-09T15:35:25.848Z,24.02
2018-04-09T15:38:03.452Z,24.03
2018-04-09T15:40:38.600Z,24.04
2018-04-09T15:43:13.537Z,23.96
2018-04-09T15:45:48.428Z,23.92
2018-04-09T15:48:23.519Z,23.90
2018-04-09T15:50:58.220Z,23.86
2018-04-09T15:53:33.105Z,23.79
2018-04-09T15:56:07.840Z,23.76
2018-04-09T15:58:42.624Z,23.69
2018-04-09T16:01:17.747Z,23.64
2018-04-09T16:03:52.775Z,23.54
2018-04-09T16:06:27.799Z,23.51
2018-04-09T16:09:02.669Z,23.44
2018-04-09T16:11:37.990Z,23.38
2018-04-09T16:14:13.185Z,23.29
2018-04-09T16:16:47.730Z,23.24
2018-04-09T16:19:22.963Z,23.28
2018-04-09T16:21:57.852Z,23.33
2018-04-09T16:24:33.053Z,23.35
2018-04-09T16:27:07.840Z,23.38
2018-04-09T16:29:42.840Z,23.34
2018-04-09T16:32:17.935Z,23.26
2018-04-09T16:34:52.724Z,23.21
2018-04-09T16:37:27.844Z,23.18
2018-04-09T16:40:03.105Z,23.14
2018-04-09T16:42:38.081Z,23.10
2018-04-09T16:45:12.969Z,23.08
2018-04-09T16:47:47.887Z,23.06
2018-04-09T16:50:22.513Z,23.06
2018-04-09T16:52:57.732Z,22.99
2018-04-09T16:55:32.326Z,22.99
2018-04-09T16:58:07.135Z,22.94
2018-04-09T17:00:42.053Z,22.92
2018-04-09T17:03:16.865Z,22.93
2018-04-09T17:05:51.981Z,22.89
2018-04-09T17:08:26.983Z,22.83
2018-04-09T17:11:17.779Z,22.76
2018-04-09T17:13:52.812Z,22.67
2018-04-09T17:16:27.880Z,22.71
2018-04-09T17:19:02.120Z,22.75
2018-04-09T17:21:36.792Z,22.84
2018-04-09T17:24:11.890Z,22.89
2018-04-09T17:26:46.580Z,22.80
2018-04-09T17:29:21.957Z,22.68
2018-04-09T17:31:56.896Z,22.45
2018-04-09T17:34:31.480Z,22.36
2018-04-09T17:37:05.741Z,22.31
2018-04-09T17:39:40.790Z,22.28
2018-04-09T17:42:15.984Z,22.16
2018-04-09T17:44:50.752Z,22.04
2018-04-09T17:47:25.948Z,21.98
2018-04-09T17:50:00.819Z,21.87
2018-04-09T17:52:36.164Z,21.89
2018-04-09T17:55:11.394Z,21.87
2018-04-09T17:57:47.061Z,21.91
2018-04-09T18:00:21.909Z,21.95
2018-04-09T18:02:56.797Z,21.85
2018-04-09T18:05:31.484Z,21.71
2018-04-09T18:08:06.374Z,21.55
2018-04-09T18:10:41.516Z,21.42
2018-04-09T18:13:16.635Z,21.39
2018-04-09T18:15:52.152Z,21.37
2018-04-09T18:18:27.041Z,21.33
2018-04-09T18:21:01.895Z,21.34
2018-04-09T18:23:37.064Z,21.30
2018-04-09T18:26:12.249Z,21.15
2018-04-09T18:28:47.148Z,21.03
2018-04-09T18:31:22.144Z,20.86
2018-04-09T18:33:56.799Z,20.69
2018-04-09T18:36:32.192Z,20.48
2018-04-09T18:39:06.878Z,20.37
2018-04-09T18:41:42.160Z,20.29
2018-04-09T18:44:17.240Z,20.35
2018-04-09T18:46:52.257Z,20.41
2018-04-09T18:49:27.433Z,20.41
2018-04-09T18:52:02.625Z,20.29
2018-04-09T18:54:37.448Z,20.28
2018-04-09T18:57:12.238Z,20.19
2018-04-09T18:59:46.940Z,20.05
2018-04-09T19:02:21.584Z,19.94
2018-04-09T19:04:56.572Z,19.88
2018-04-09T19:07:31.617Z,19.80
2018-04-09T19:10:06.606Z,19.77
2018-04-09T19:12:41.257Z,19.66
2018-04-09T19:15:15.744Z,19.60
2018-04-09T19:17:50.650Z,19.57
2018-04-09T19:20:25.752Z,19.61
2018-04-09T19:23:00.964Z,19.69
2018-04-09T19:25:35.884Z,19.77
2018-04-09T19:28:11.396Z,19.81
2018-04-09T19:30:46.772Z,19.75
2018-04-09T19:33:21.540Z,19.72
2018-04-09T19:36:01.863Z,19.71
2018-04-09T19:38:42.485Z,19.64
2018-04-09T19:41:17.276Z,19.58
2018-04-09T19:43:52.005Z,19.52
2018-04-09T19:46:27.365Z,19.39
2018-04-09T19:49:01.844Z,19.37
2018-04-09T19:51:36.657Z,19.28
2018-04-09T19:54:11.838Z,19.10
2018-04-09T19:56:47.321Z,19.00
2018-04-09T19:59:22.396Z,18.88
2018-04-09T20:01:57.288Z,18.76
2018-04-09T20:04:31.871Z,18.72
2018-04-09T20:07:06.657Z,18.65
2018-04-09T20:09:41.843Z,18.62
2018-04-09T20:12:17.227Z,18.57
2018-04-09T20:14:52.207Z,18.48
2018-04-09T20:17:26.881Z,18.40
2018-04-09T20:20:02.103Z,18.40
2018-04-09T20:22:37.477Z,18.39
2018-04-09T20:25:12.108Z,18.36
2018-04-09T20:27:46.760Z,18.47
2018-04-09T20:30:21.840Z,18.62
2018-04-09T20:32:56.955Z,18.76
2018-04-09T20:35:31.833Z,18.85
2018-04-09T20:38:06.761Z,18.89
2018-04-09T20:40:41.449Z,19.00
2018-04-09T20:43:16.742Z,19.02
2018-04-09T20:45:51.844Z,19.01
2018-04-09T20:48:27.032Z,19.08
2018-04-09T20:51:02.488Z,19.18
2018-04-09T20:53:36.752Z,19.25
2018-04-09T20:56:11.813Z,19.40
2018-04-09T20:58:46.736Z,19.46
2018-04-09T21:01:21.837Z,19.44
2018-04-09T21:03:56.720Z,19.38
2018-04-09T21:06:32.020Z,19.27
2018-04-09T21:09:06.610Z,19.15
2018-04-09T21:11:41.810Z,19.05
2018-04-09T21:14:16.533Z,18.99
2018-04-09T21:16:51.569Z,18.89
2018-04-09T21:19:26.192Z,18.70
2018-04-09T21:22:01.177Z,18.48
2018-04-09T21:24:36.492Z,18.33
2018-04-09T21:27:11.076Z,18.22
2018-04-09T21:29:46.055Z,18.15
2018-04-09T21:32:21.891Z,18.13
2018-04-09T21:34:56.554Z,18.09
2018-04-09T21:37:31.802Z,18.08
2018-04-09T21:40:06.432Z,18.08
2018-04-09T21:42:41.669Z,18.07
2018-04-09T21:45:16.588Z,17.98
2018-04-09T21:47:51.631Z,17.95
2018-04-09T21:50:26.510Z,17.85
2018-04-09T21:53:01.129Z,17.77
2018-04-09T21:55:36.075Z,17.80
2018-04-09T21:58:10.730Z,17.77
2018-04-09T22:00:45.361Z,17.79
2018-04-09T22:03:20.040Z,17.77
2018-04-09T22:05:55.055Z,17.76
2018-04-09T22:08:29.895Z,17.76
2018-04-09T22:11:04.812Z,17.72
2018-04-09T22:13:39.491Z,17.69
2018-04-09T22:16:14.767Z,17.58
2018-04-09T22:18:49.629Z,17.60
2018-04-09T22:21:24.203Z,17.63
2018-04-09T22:23:59.017Z,17.66
2018-04-09T22:26:34.217Z,17.61
2018-04-09T22:29:09.198Z,17.54
2018-04-09T22:31:43.909Z,17.51
2018-04-09T22:34:18.804Z,17.43
2018-04-09T22:36:53.788Z,17.40
2018-04-09T22:39:29.040Z,17.33
2018-04-09T22:42:03.830Z,17.25
2018-04-09T22:44:38.973Z,17.22
2018-04-09T22:47:13.961Z,17.23
2018-04-09T22:49:48.869Z,17.21
2018-04-09T22:52:23.984Z,17.20
2018-04-09T22:54:58.133Z,17.15
2018-04-09T22:57:33.285Z,17.08
2018-04-09T23:00:07.869Z,17.07
2018-04-09T23:02:43.060Z,17.03
2018-04-09T23:05:18.109Z,16.96
2018-04-09T23:07:52.824Z,16.88
2018-04-09T23:10:28.040Z,16.85
2018-04-09T23:13:02.887Z,16.82
2018-04-09T23:15:38.139Z,16.79
2018-04-09T23:18:12.852Z,16.81
2018-04-09T23:20:47.847Z,16.81
2018-04-09T23:23:22.403Z,16.76
2018-04-09T23:25:57.205Z,16.69
2018-04-09T23:28:32.164Z,16.67
2018-04-09T23:31:07.517Z,16.70
2018-04-09T23:33:42.402Z,16.71
2018-04-09T23:36:16.911Z,16.71
2018-04-09T23:38:52.028Z,16.67
2018-04-09T23:41:26.894Z,16.62
2018-04-09T23:44:01.259Z,16.61
2018-04-09T23:46:36.426Z,16.67
2018-04-09T23:49:10.992Z,16.65
2018-04-09T23:51:45.995Z,16.63
2018-04-09T23:54:22.324Z,16.60
2018-04-09T23:56:57.027Z,16.57
2018-04-09T23:59:31.935Z,16.51
